createdAt,value
2023-01-12T00:00:53.922Z,100236.16
2023-01-12T00:03:20.663Z,100232.53
2023-01-12T00:05:47.438Z,100216.66
2023-01-12T00:08:14.119Z,100215.00
2023-01-12T00:10:40.822Z,100209.88
2023-01-12T00:13:07.543Z,100199.09
2023-01-12T00:15:55.173Z,100185.84
2023-01-12T00:18:22.016Z,100179.91
2023-01-12T00:20:48.930Z,100181.06
2023-01-12T00:23:15.636Z,100158.22
2023-01-12T00:25:42.356Z,100139.69
2023-01-12T00:28:09.077Z,100138.84
2023-01-12T00:30:35.832Z,100140.00
2023-01-12T00:33:02.588Z,100121.97
2023-01-12T00:35:29.325Z,100125.09
2023-01-12T00:37:56.123Z,100128.94
2023-01-12T00:40:22.933Z,100126.13
2023-01-12T00:42:59.342Z,100133.91
2023-01-12T00:45:26.102Z,100128.84
2023-01-12T00:53:43.193Z,100119.91
2023-01-12T00:56:09.996Z,100104.56
2023-01-12T00:58:36.921Z,100106.03
2023-01-12T01:01:04.954Z,100113.50
2023-01-12T01:03:31.861Z,100115.84
2023-01-12T01:06:08.818Z,100108.88
2023-01-12T01:08:37.177Z,100109.06
2023-01-12T01:11:05.715Z,100106.94
2023-01-12T01:13:32.565Z,100085.97
2023-01-12T01:16:00.827Z,100102.66
2023-01-12T01:18:28.362Z,100108.97
2023-01-12T01:20:55.550Z,100084.66
2023-01-12T01:23:22.893Z,100076.56
2023-01-12T01:25:49.997Z,100077.25
2023-01-12T01:28:17.746Z,100076.75
2023-01-12T01:30:45.202Z,100079.41
2023-01-12T01:33:12.302Z,100076.94
2023-01-12T01:35:39.207Z,100087.19
2023-01-12T01:38:06.466Z,100060.59
2023-01-12T01:40:33.827Z,100063.25
2023-01-12T01:43:00.770Z,100061.94
2023-01-12T01:45:27.964Z,100058.66
2023-01-12T01:47:57.671Z,100057.31
2023-01-12T01:50:28.945Z,100056.00
2023-01-12T01:52:58.653Z,100036.19
2023-01-12T01:55:28.013Z,100044.13
2023-01-12T01:57:57.138Z,100043.13
2023-01-12T02:00:24.641Z,100051.03
2023-01-12T02:02:52.055Z,100029.56
2023-01-12T02:05:21.423Z,100034.72
2023-01-12T02:07:49.193Z,100039.50
2023-01-12T02:10:16.396Z,100037.00
2023-01-12T02:12:52.398Z,100026.47
2023-01-12T02:15:29.527Z,100028.75
2023-01-12T02:17:57.533Z,100024.97
2023-01-12T02:20:34.452Z,100034.91
2023-01-12T02:23:02.463Z,100030.44
2023-01-12T02:25:38.763Z,100038.38
2023-01-12T02:28:17.247Z,100037.88
2023-01-12T02:30:53.686Z,100031.75
2023-01-12T02:33:21.685Z,100039.72
2023-01-12T02:35:48.751Z,100025.16
2023-01-12T02:38:22.221Z,100038.72
2023-01-12T02:40:59.599Z,100029.78
2023-01-12T02:43:28.934Z,100023.72
2023-01-12T02:46:05.878Z,100019.25
2023-01-12T02:48:38.958Z,100022.72
2023-01-12T02:51:08.768Z,100013.78
2023-01-12T02:53:43.502Z,100016.94
2023-01-12T02:56:11.162Z,100018.44
2023-01-12T02:58:41.016Z,100024.72
2023-01-12T03:01:09.868Z,100007.38
2023-01-12T03:03:39.946Z,100012.81
2023-01-12T03:06:07.714Z,100017.59
2023-01-12T03:08:37.364Z,100012.66
2023-01-12T03:11:15.012Z,100021.09
2023-01-12T03:13:44.876Z,100009.34
2023-01-12T03:16:13.393Z,100019.28
2023-01-12T03:18:49.831Z,100018.44
2023-01-12T03:21:24.074Z,100020.75
2023-01-12T03:23:55.697Z,100030.31
2023-01-12T03:26:25.772Z,100029.31
2023-01-12T03:28:55.602Z,100023.22
2023-01-12T03:31:23.835Z,100014.31
2023-01-12T03:33:51.312Z,100029.47
2023-01-12T03:36:28.939Z,100028.13
2023-01-12T03:39:05.659Z,100026.16
2023-01-12T03:41:40.951Z,100017.59
2023-01-12T03:44:13.036Z,100031.09
2023-01-12T03:46:43.904Z,100025.81
2023-01-12T03:49:16.501Z,100038.22
2023-01-12T03:51:45.605Z,100026.47
2023-01-12T03:54:14.690Z,100029.59
2023-01-12T03:56:42.691Z,100029.94
2023-01-12T03:59:09.904Z,100040.66
2023-01-12T04:01:37.201Z,100033.75
2023-01-12T04:04:04.521Z,100036.53
2023-01-12T04:06:31.288Z,100030.41
2023-01-12T04:08:58.071Z,100031.91
2023-01-12T04:11:34.711Z,100035.03
2023-01-12T04:14:01.437Z,100035.03
2023-01-12T04:16:28.241Z,100036.53
2023-01-12T04:18:55.048Z,100047.22
2023-01-12T04:21:31.482Z,100048.06
2023-01-12T04:23:58.757Z,100041.16
2023-01-12T04:26:25.498Z,100036.53
2023-01-12T04:28:52.322Z,100030.91
2023-01-12T04:31:19.173Z,100027.59
2023-01-12T04:33:46.047Z,100057.59
2023-01-12T04:36:12.930Z,100038.28
2023-01-12T04:38:40.417Z,100024.94
2023-01-12T04:41:07.646Z,100040.94
2023-01-12T04:43:35.114Z,100021.66
2023-01-12T04:46:11.650Z,100039.63
2023-01-12T04:48:39.420Z,100028.72
2023-01-12T04:51:06.471Z,100032.66
2023-01-12T04:53:33.364Z,100037.78
2023-01-12T04:56:03.121Z,100036.13
2023-01-12T04:58:29.937Z,100035.63
2023-01-12T05:00:56.757Z,100035.13
2023-01-12T05:03:23.516Z,100033.47
2023-01-12T05:05:50.406Z,100038.59
2023-01-12T05:08:26.652Z,100044.53
2023-01-12T05:10:55.039Z,100035.59
2023-01-12T05:13:22.432Z,100039.22
2023-01-12T05:15:49.145Z,100040.72
2023-01-12T05:18:16.168Z,100028.69
2023-01-12T05:20:42.949Z,100035.44
2023-01-12T05:23:09.770Z,100030.97
2023-01-12T05:25:36.601Z,100038.88
2023-01-12T05:28:03.627Z,100028.81
2023-01-12T05:30:32.076Z,100036.41
2023-01-12T05:32:59.058Z,100041.53
2023-01-12T05:35:25.895Z,100034.25
2023-01-12T05:37:54.856Z,100035.91
2023-01-12T05:40:21.655Z,100042.00
2023-01-12T05:43:00.391Z,100031.31
2023-01-12T05:45:27.236Z,100033.78
2023-01-12T05:47:58.215Z,100038.44
2023-01-12T05:50:25.006Z,100039.63
2023-01-12T05:52:52.712Z,100040.63
2023-01-12T05:55:19.730Z,100043.59
2023-01-12T05:57:46.559Z,100040.78
2023-01-12T06:00:13.673Z,100038.66
2023-01-12T06:02:40.476Z,100030.41
2023-01-12T06:05:09.768Z,100043.47
2023-01-12T06:07:37.379Z,100030.44
2023-01-12T06:10:05.625Z,100031.41
2023-01-12T06:12:42.383Z,100038.84
2023-01-12T06:15:09.528Z,100037.88
2023-01-12T06:17:36.342Z,100051.75
2023-01-12T06:20:03.295Z,100038.72
2023-01-12T06:22:30.174Z,100045.34
2023-01-12T06:24:56.922Z,100038.41
2023-01-12T06:27:23.782Z,100054.25
2023-01-12T06:29:50.556Z,100047.63
2023-01-12T06:32:17.374Z,100055.91
2023-01-12T06:34:44.211Z,100049.28
2023-01-12T06:37:13.387Z,100058.69
2023-01-12T06:39:40.221Z,100058.84
2023-01-12T06:42:16.521Z,100051.41
2023-01-12T06:44:43.357Z,100062.47
2023-01-12T06:47:10.121Z,100057.38
2023-01-12T06:49:36.972Z,100053.06
2023-01-12T06:52:03.987Z,100059.66
2023-01-12T06:54:31.398Z,100071.06
2023-01-12T06:56:58.227Z,100068.75
2023-01-12T06:59:25.064Z,100066.44
2023-01-12T07:01:52.020Z,100073.84
2023-01-12T07:04:18.962Z,100073.84
2023-01-12T07:06:45.982Z,100083.59
2023-01-12T07:09:12.819Z,100076.50
2023-01-12T07:11:39.647Z,100077.84
2023-01-12T07:14:09.036Z,100083.97
2023-01-12T07:16:36.166Z,100081.63
2023-01-12T07:19:02.997Z,100088.91
2023-01-12T07:21:29.880Z,100106.56
2023-01-12T07:23:56.662Z,100096.66
2023-01-12T07:26:23.508Z,100101.94
2023-01-12T07:28:50.355Z,100114.84
2023-01-12T07:31:19.636Z,100107.72
2023-01-12T07:33:46.574Z,100106.56
2023-01-12T07:36:13.715Z,100111.03
2023-01-12T07:38:42.424Z,100111.03
2023-01-12T07:41:29.179Z,100110.66
2023-01-12T07:43:56.330Z,100118.78
2023-01-12T07:46:23.426Z,100105.22
2023-01-12T07:48:50.525Z,100123.09
2023-01-12T07:51:17.367Z,100121.78
2023-01-12T07:53:44.294Z,100111.19
2023-01-12T07:56:13.917Z,100117.16
2023-01-12T07:58:40.811Z,100117.00
2023-01-12T08:01:07.863Z,100121.09
2023-01-12T08:03:34.781Z,100129.22
2023-01-12T08:06:01.827Z,100115.66
2023-01-12T08:08:28.732Z,100121.44
2023-01-12T08:10:55.640Z,100128.34
2023-01-12T08:13:25.957Z,100123.25
2023-01-12T08:15:53.929Z,100123.72
2023-01-12T08:18:24.795Z,100129.84
2023-01-12T08:20:52.667Z,100122.72
2023-01-12T08:23:23.924Z,100119.59
2023-01-12T08:25:56.725Z,100121.72
2023-01-12T08:28:28.265Z,100130.31
2023-01-12T08:30:55.381Z,100119.56
2023-01-12T08:33:22.548Z,100125.31
2023-01-12T08:35:49.929Z,100116.25
2023-01-12T08:38:16.932Z,100121.50
2023-01-12T08:40:53.538Z,100124.81
2023-01-12T08:43:40.529Z,100123.31
2023-01-12T08:46:08.706Z,100118.50
2023-01-12T08:48:36.334Z,100126.63
2023-01-12T08:51:04.683Z,100129.09
2023-01-12T08:53:32.164Z,100125.47
2023-01-12T08:55:59.262Z,100131.94
2023-01-12T08:58:26.563Z,100118.69
2023-01-12T09:00:54.068Z,100112.25
2023-01-12T09:03:21.591Z,100112.56
2023-01-12T09:05:49.439Z,100115.38
2023-01-12T09:08:16.382Z,100113.72
2023-01-12T09:10:43.261Z,100112.06
2023-01-12T09:13:15.961Z,100107.63
2023-01-12T09:15:48.164Z,100119.19
2023-01-12T09:18:20.436Z,100120.34
2023-01-12T09:20:47.480Z,100117.06
2023-01-12T09:23:14.518Z,100124.69
2023-01-12T09:25:41.483Z,100121.34
2023-01-12T09:28:15.988Z,100128.97
2023-01-12T09:30:43.007Z,100120.06
2023-01-12T09:33:10.240Z,100137.56
2023-01-12T09:35:37.184Z,100134.75
2023-01-12T09:38:06.257Z,100135.13
2023-01-12T09:40:35.754Z,100137.41
2023-01-12T09:43:12.679Z,100135.28
2023-01-12T09:45:49.667Z,100128.34
2023-01-12T09:48:19.015Z,100143.91
2023-01-12T09:50:55.555Z,100139.78
2023-01-12T09:53:22.930Z,100128.03
2023-01-12T09:55:51.210Z,100124.72
2023-01-12T09:58:23.370Z,100137.13
2023-01-12T10:00:52.173Z,100128.53
2023-01-12T10:03:30.330Z,100129.22
2023-01-12T10:06:00.806Z,100123.91
2023-01-12T10:08:32.539Z,100128.22
2023-01-12T10:11:05.891Z,100136.16
2023-01-12T10:13:43.087Z,100128.41
2023-01-12T10:16:18.524Z,100131.84
2023-01-12T10:18:48.475Z,100127.69
2023-01-12T10:21:15.565Z,100134.81
2023-01-12T10:23:42.952Z,100124.25
2023-01-12T10:26:19.872Z,100120.13
2023-01-12T10:28:47.510Z,100114.03
2023-01-12T10:31:20.471Z,100114.34
2023-01-12T10:33:56.949Z,100120.28
2023-01-12T10:36:25.828Z,100112.53
2023-01-12T10:38:53.043Z,100107.59
2023-01-12T10:41:21.430Z,100118.63
2023-01-12T10:43:55.828Z,100099.66
2023-01-12T10:46:24.563Z,100099.50
2023-01-12T10:48:55.489Z,100099.81
2023-01-12T10:51:25.541Z,100102.16
2023-01-12T10:53:57.548Z,100110.06
2023-01-12T10:56:27.151Z,100087.44
2023-01-12T10:58:56.782Z,100091.72
2023-01-12T11:01:23.988Z,100093.72
2023-01-12T11:03:51.147Z,100085.63
2023-01-12T11:06:25.565Z,100097.16
2023-01-12T11:08:52.763Z,100084.97
2023-01-12T11:11:28.886Z,100080.00
2023-01-12T11:13:58.046Z,100074.25
2023-01-12T11:16:32.594Z,100068.63
2023-01-12T11:19:09.826Z,100074.88
2023-01-12T11:21:38.531Z,100059.53
2023-01-12T11:24:10.981Z,100062.66
2023-01-12T11:26:43.245Z,100060.53
2023-01-12T11:29:19.739Z,100056.72
2023-01-12T11:31:48.989Z,100045.00
2023-01-12T11:34:18.786Z,100043.03
2023-01-12T11:36:56.098Z,100035.59
2023-01-12T11:39:24.159Z,100035.09
2023-01-12T11:42:01.586Z,100027.84
2023-01-12T11:44:47.864Z,100026.00
2023-01-12T11:47:15.641Z,100041.50
2023-01-12T11:49:48.136Z,100016.91
2023-01-12T11:52:16.731Z,100007.16
2023-01-12T11:54:43.836Z,100020.38
2023-01-12T11:57:13.983Z,100005.84
2023-01-12T11:59:44.029Z,100009.50
2023-01-12T12:02:14.127Z,99998.59
2023-01-12T12:04:44.378Z,99996.94
2023-01-12T12:07:20.192Z,99992.50
2023-01-12T12:09:50.353Z,99993.66
2023-01-12T12:12:27.591Z,100002.38
2023-01-12T12:14:57.823Z,99995.63
2023-01-12T12:17:28.517Z,99986.06
2023-01-12T12:20:03.901Z,99983.75
2023-01-12T12:22:34.039Z,99967.09
2023-01-12T12:25:06.098Z,99969.22
2023-01-12T12:27:36.477Z,99959.31
2023-01-12T12:30:03.797Z,99957.84
2023-01-12T12:32:33.917Z,99956.88
2023-01-12T12:35:09.790Z,99961.00
2023-01-12T12:37:37.362Z,99962.50
2023-01-12T12:40:12.953Z,99951.44
2023-01-12T12:42:48.386Z,99943.16
2023-01-12T12:45:16.840Z,99951.75
2023-01-12T12:47:46.856Z,99959.97
2023-01-12T12:50:21.251Z,99946.13
2023-01-12T12:52:52.873Z,99943.16
2023-01-12T12:55:19.995Z,99934.88
2023-01-12T12:57:50.057Z,99927.13
2023-01-12T13:00:20.294Z,99933.72
2023-01-12T13:02:50.537Z,99924.28
2023-01-12T13:05:37.522Z,99924.44
2023-01-12T13:08:05.637Z,99933.00
2023-01-12T13:10:32.662Z,99930.84
2023-01-12T13:13:02.797Z,99914.97
2023-01-12T13:15:32.999Z,99922.69
2023-01-12T13:18:01.448Z,99918.06
2023-01-12T13:20:31.578Z,99917.41
2023-01-12T13:22:59.094Z,99907.13
2023-01-12T13:25:27.976Z,99899.72
2023-01-12T13:27:58.141Z,99921.50
2023-01-12T13:33:38.880Z,99890.06
2023-01-12T13:36:10.209Z,99890.22
2023-01-12T13:38:40.669Z,99875.84
2023-01-12T13:41:10.819Z,99880.78
2023-01-12T13:43:39.828Z,99897.63
2023-01-12T13:46:14.447Z,99900.94
2023-01-12T13:48:46.246Z,99898.59
2023-01-12T13:51:16.241Z,99878.59
2023-01-12T13:53:43.272Z,99874.63
2023-01-12T13:56:13.351Z,99877.44
2023-01-12T13:58:41.606Z,99869.81
2023-01-12T14:01:17.969Z,99865.84
2023-01-12T14:03:48.331Z,99891.94
2023-01-12T14:06:22.918Z,99863.84
2023-01-12T14:08:56.932Z,99855.41
2023-01-12T14:11:27.069Z,99877.06
2023-01-12T14:13:54.380Z,99860.56
2023-01-12T14:16:25.701Z,99859.38
2023-01-12T14:18:53.011Z,99881.88
2023-01-12T14:21:23.195Z,99872.59
2023-01-12T14:23:50.442Z,99865.69
2023-01-12T14:26:23.212Z,99880.09
2023-01-12T14:28:51.505Z,99877.28
2023-01-12T14:31:22.619Z,99907.34
2023-01-12T14:33:51.837Z,99895.66
2023-01-12T14:36:22.017Z,99897.63
2023-01-12T14:38:49.701Z,99903.25
2023-01-12T14:41:22.022Z,99925.72
2023-01-12T14:43:55.507Z,99889.69
2023-01-12T14:46:26.083Z,99918.94
2023-01-12T14:48:56.388Z,99909.69
2023-01-12T14:51:23.702Z,99899.94
2023-01-12T14:53:56.403Z,99898.31
2023-01-12T14:56:25.879Z,99896.66
2023-01-12T14:58:53.300Z,99902.16
2023-01-12T15:01:23.565Z,99884.09
2023-01-12T15:03:51.226Z,99879.31
2023-01-12T15:06:18.307Z,99878.00
2023-01-12T15:08:48.473Z,99891.56
2023-01-12T15:11:15.983Z,99899.53
2023-01-12T15:13:43.044Z,99900.19
2023-01-12T15:16:13.298Z,99895.38
2023-01-12T15:18:43.526Z,99895.75
2023-01-12T15:21:13.963Z,99886.00
2023-01-12T15:23:44.236Z,99884.66
2023-01-12T15:26:11.423Z,99900.56
2023-01-12T15:28:38.628Z,99893.59
2023-01-12T15:31:05.872Z,99900.38
2023-01-12T15:33:32.990Z,99896.78
2023-01-12T15:36:00.230Z,99889.50
2023-01-12T15:38:29.441Z,99882.22
2023-01-12T15:40:56.742Z,99873.66
2023-01-12T15:43:24.284Z,99874.31
2023-01-12T15:45:51.922Z,99872.19
2023-01-12T15:48:19.681Z,99869.72
2023-01-12T15:50:47.291Z,99859.31
2023-01-12T15:53:17.463Z,99872.53
2023-01-12T15:55:44.686Z,99871.03
2023-01-12T15:58:11.815Z,99870.34
2023-01-12T16:00:39.532Z,99872.00
2023-01-12T16:03:07.100Z,99873.31
2023-01-12T16:05:34.379Z,99879.41
2023-01-12T16:08:01.636Z,99887.16
2023-01-12T16:10:30.671Z,99888.00
2023-01-12T16:12:59.971Z,99892.13
2023-01-12T16:15:30.676Z,99901.03
2023-01-12T16:17:58.840Z,99901.53
2023-01-12T16:20:26.015Z,99903.66
2023-01-12T16:22:53.300Z,99906.97
2023-01-12T16:25:20.523Z,99894.56
2023-01-12T16:27:48.034Z,99897.88
2023-01-12T16:30:16.135Z,99918.03
2023-01-12T16:32:47.250Z,99911.22
2023-01-12T16:35:15.899Z,99911.72
2023-01-12T16:37:43.312Z,99912.56
2023-01-12T16:40:11.540Z,99908.22
2023-01-12T16:42:38.716Z,99921.13
2023-01-12T16:45:06.732Z,99928.41
2023-01-12T16:47:34.018Z,99927.56
2023-01-12T16:50:01.143Z,99928.41
2023-01-12T16:52:28.667Z,99930.38
2023-01-12T16:54:56.072Z,99937.66
2023-01-12T16:57:23.351Z,99937.66
2023-01-12T16:59:51.544Z,99948.06
2023-01-12T17:02:19.582Z,99937.97
2023-01-12T17:04:49.427Z,99944.44
2023-01-12T17:07:16.825Z,99944.44
2023-01-12T17:09:44.500Z,99941.94
2023-01-12T17:12:12.091Z,99944.75
2023-01-12T17:14:39.489Z,99944.28
2023-01-12T17:17:08.787Z,99977.16
2023-01-12T17:19:37.488Z,99974.38
2023-01-12T17:22:05.730Z,99992.38
2023-01-12T17:24:33.945Z,99997.66
2023-01-12T17:27:01.183Z,99990.72
2023-01-12T17:29:28.993Z,100001.47
2023-01-12T17:32:06.682Z,100016.34
2023-01-12T17:34:37.292Z,100021.47
2023-01-12T17:37:08.523Z,100016.19
2023-01-12T17:39:37.557Z,100012.41
2023-01-12T17:42:08.192Z,100013.03
2023-01-12T17:44:35.544Z,100014.53
2023-01-12T17:47:03.026Z,100015.53
2023-01-12T17:49:30.239Z,100007.78
2023-01-12T17:51:58.118Z,100016.22
2023-01-12T17:54:25.948Z,100028.59
2023-01-12T17:56:54.173Z,100010.75
2023-01-12T17:59:24.045Z,100019.53
2023-01-12T18:01:52.521Z,100030.59
2023-01-12T18:04:21.018Z,100026.47
2023-01-12T18:06:48.255Z,100027.31
2023-01-12T18:09:15.303Z,100020.34
2023-01-12T18:11:42.899Z,100037.56
2023-01-12T18:14:10.482Z,100033.41
2023-01-12T18:16:37.597Z,100043.81
2023-01-12T18:19:06.440Z,100034.91
2023-01-12T18:21:34.216Z,100029.94
2023-01-12T18:24:01.548Z,100015.44
2023-01-12T18:26:31.003Z,100033.78
2023-01-12T18:28:58.840Z,100025.69
2023-01-12T18:31:27.330Z,100037.59
2023-01-12T18:34:00.223Z,100038.59
2023-01-12T18:36:27.760Z,100039.91
2023-01-12T18:38:55.714Z,100040.56
2023-01-12T18:41:26.292Z,100048.78
2023-01-12T18:43:53.720Z,100047.50
2023-01-12T18:46:21.011Z,100044.16
2023-01-12T18:48:48.440Z,100051.75
2023-01-12T18:51:19.107Z,100052.13
2023-01-12T18:53:46.275Z,100051.59
2023-01-12T18:56:14.451Z,100049.47
2023-01-12T18:58:46.626Z,100051.75
2023-01-12T19:01:19.903Z,100058.03
2023-01-12T19:03:49.629Z,100050.28
2023-01-12T19:06:22.072Z,100060.66
2023-01-12T19:08:52.921Z,100049.28
2023-01-12T19:11:20.125Z,100039.03
2023-01-12T19:13:50.315Z,100052.22
2023-01-12T19:16:20.627Z,100049.75
2023-01-12T19:18:48.002Z,100056.84
2023-01-12T19:21:18.607Z,100055.50
2023-01-12T19:23:48.931Z,100057.00
2023-01-12T19:26:19.054Z,100044.78
2023-01-12T19:28:46.345Z,100048.75
2023-01-12T19:31:16.081Z,100057.78
2023-01-12T19:33:43.250Z,100040.16
2023-01-12T19:36:11.376Z,100045.78
2023-01-12T19:38:38.775Z,100052.34
2023-01-12T19:41:10.951Z,100044.25
2023-01-12T19:43:41.196Z,100058.94
2023-01-12T19:46:08.469Z,100066.84
2023-01-12T19:48:35.886Z,100083.50
2023-01-12T19:51:10.463Z,100083.81
2023-01-12T19:53:39.386Z,100073.25
2023-01-12T19:56:09.634Z,100084.78
2023-01-12T19:58:36.841Z,100097.50
2023-01-12T20:01:04.076Z,100098.13
2023-01-12T20:03:31.332Z,100101.25
2023-01-12T20:05:58.676Z,100109.16
2023-01-12T20:08:26.170Z,100097.78
2023-01-12T20:10:54.489Z,100100.41
2023-01-12T20:13:21.641Z,100088.66
2023-01-12T20:15:50.614Z,100080.94
2023-01-12T20:18:18.325Z,100087.66
2023-01-12T20:20:45.842Z,100086.66
2023-01-12T20:23:13.608Z,100104.63
2023-01-12T20:25:41.724Z,100102.13
2023-01-12T20:28:09.062Z,100108.06
2023-01-12T20:30:38.520Z,100109.53
2023-01-12T20:33:06.568Z,100097.00
2023-01-12T20:35:35.355Z,100098.16
2023-01-12T20:38:03.386Z,100100.47
2023-01-12T20:40:30.513Z,100092.84
2023-01-12T20:42:57.791Z,100085.06
2023-01-12T20:45:25.076Z,100063.81
2023-01-12T20:47:52.254Z,100054.09
2023-01-12T20:50:19.411Z,100061.97
2023-01-12T20:52:48.393Z,100070.38
2023-01-12T20:55:15.958Z,100075.66
2023-01-12T20:57:43.245Z,100067.13
2023-01-12T21:00:11.290Z,100074.28
2023-01-12T21:02:38.469Z,100070.50
2023-01-12T21:05:08.565Z,100074.31
2023-01-12T21:07:35.980Z,100066.91
2023-01-12T21:10:03.093Z,100078.47
2023-01-12T21:12:30.151Z,100071.56
2023-01-12T21:14:57.154Z,100076.22
2023-01-12T21:17:24.379Z,100074.09
2023-01-12T21:19:51.405Z,100062.72
2023-01-12T21:22:20.557Z,100091.75
2023-01-12T21:24:47.947Z,100071.16
2023-01-12T21:27:14.938Z,100081.41
2023-01-12T21:29:42.376Z,100070.81
2023-01-12T21:32:09.492Z,100073.00
2023-01-12T21:34:36.471Z,100067.56
2023-01-12T21:37:03.981Z,100076.13
2023-01-12T21:39:30.869Z,100091.50
2023-01-12T21:42:01.070Z,100084.41
2023-01-12T21:44:28.146Z,100093.81
2023-01-12T21:46:55.165Z,100104.41
2023-01-12T21:49:22.226Z,100094.19
2023-01-12T21:51:49.395Z,100117.28
2023-01-12T21:54:16.653Z,100111.03
2023-01-12T21:56:44.055Z,100114.84
2023-01-12T21:59:11.813Z,100089.75
2023-01-12T22:01:39.312Z,100103.63
2023-01-12T22:04:06.394Z,100102.63
2023-01-12T22:06:33.509Z,100093.22
2023-01-12T22:09:00.467Z,100097.84
2023-01-12T22:11:27.535Z,100089.56
2023-01-12T22:13:54.455Z,100088.91
2023-01-12T22:16:21.489Z,100079.84
2023-01-12T22:18:49.999Z,100080.81
2023-01-12T22:21:18.033Z,100074.88
2023-01-12T22:23:45.265Z,100065.78
2023-01-12T22:26:13.166Z,100070.72
2023-01-12T22:28:41.151Z,100055.53
2023-01-12T22:31:08.578Z,100050.44
2023-01-12T22:33:35.547Z,100048.94
2023-01-12T22:36:03.426Z,100053.38
2023-01-12T22:38:30.483Z,100038.66
2023-01-12T22:41:02.989Z,100048.44
2023-01-12T22:43:30.042Z,100053.38
2023-01-12T22:45:58.512Z,100046.25
2023-01-12T22:48:26.275Z,100045.59
2023-01-12T22:50:55.000Z,100037.69
2023-01-12T22:53:24.315Z,100036.19
2023-01-12T22:55:52.067Z,100027.91
2023-01-12T22:58:19.073Z,100024.78
2023-01-12T23:00:46.074Z,100008.41
2023-01-12T23:03:14.088Z,100010.88
2023-01-12T23:05:44.124Z,100000.13
2023-01-12T23:08:11.119Z,100000.63
2023-01-12T23:10:38.051Z,99987.41
2023-01-12T23:13:08.133Z,99989.06
2023-01-12T23:15:38.172Z,100011.19
2023-01-12T23:18:05.808Z,99999.59
2023-01-12T23:20:33.908Z,100013.66
2023-01-12T23:23:01.003Z,100022.91
2023-01-12T23:25:27.923Z,100006.88
2023-01-12T23:27:54.943Z,100013.81
2023-01-12T23:30:21.990Z,100009.50
2023-01-12T23:32:49.265Z,100017.59
2023-01-12T23:35:16.573Z,100018.56
2023-01-12T23:37:45.014Z,100006.16
2023-01-12T23:40:12.272Z,100023.53
2023-01-12T23:42:39.635Z,100006.31
2023-01-12T23:45:07.010Z,99996.72
2023-01-12T23:47:33.975Z,99985.16
2023-01-12T23:50:00.996Z,99988.41
2023-01-12T23:52:27.894Z,99988.91
2023-01-12T23:54:56.217Z,99980.94
2023-01-12T23:57:23.423Z,99976.16
2023-01-12T23:59:50.938Z,99990.72
